createdAt,value
2018-12-21T00:00:49.803Z,2.07
2018-12-21T00:03:17.494Z,2.00
2018-12-21T00:05:45.236Z,2.50
2018-12-21T00:08:12.689Z,2.10
2018-12-21T00:10:40.173Z,2.00
2018-12-21T00:13:07.621Z,1.83
2018-12-21T00:15:35.192Z,2.20
2018-12-21T00:18:02.761Z,1.73
2018-12-21T00:20:31.245Z,1.97
2018-12-21T00:22:58.704Z,1.90
2018-12-21T00:25:26.165Z,2.13
2018-12-21T00:27:53.767Z,2.00
2018-12-21T00:30:22.632Z,1.83
2018-12-21T00:32:55.701Z,1.93
2018-12-21T00:35:28.897Z,2.20
2018-12-21T00:38:02.339Z,1.97
2018-12-21T00:40:35.635Z,2.13
2018-12-21T00:43:21.597Z,1.77
2018-12-21T00:45:50.970Z,1.80
2018-12-21T00:48:18.615Z,2.10
2018-12-21T00:50:46.061Z,1.90
2018-12-21T00:53:13.644Z,2.27
2018-12-21T00:55:41.299Z,1.80
2018-12-21T00:58:08.863Z,1.67
2018-12-21T01:00:36.313Z,1.93
2018-12-21T01:03:03.792Z,2.13
2018-12-21T01:05:31.565Z,1.67
2018-12-21T01:07:59.323Z,2.07
2018-12-21T01:10:26.785Z,1.67
2018-12-21T01:12:54.356Z,1.87
2018-12-21T01:15:21.864Z,1.80
2018-12-21T01:17:49.460Z,1.77
2018-12-21T01:20:17.111Z,1.90
2018-12-21T01:22:44.685Z,1.77
2018-12-21T01:25:12.317Z,1.90
2018-12-21T01:27:39.789Z,1.70
2018-12-21T01:30:07.241Z,1.80
2018-12-21T01:32:34.988Z,1.60
2018-12-21T01:35:02.404Z,1.90
2018-12-21T01:37:29.963Z,2.17
2018-12-21T01:39:57.512Z,1.80
2018-12-21T01:42:24.979Z,1.67
2018-12-21T01:44:52.608Z,1.73
2018-12-21T01:47:20.056Z,1.47
2018-12-21T01:49:47.656Z,1.60
2018-12-21T01:52:15.109Z,1.60
2018-12-21T01:54:42.572Z,1.70
2018-12-21T01:57:10.124Z,1.87
2018-12-21T01:59:37.785Z,1.80
2018-12-21T02:02:05.241Z,1.70
2018-12-21T02:04:32.701Z,1.30
2018-12-21T02:07:00.328Z,1.73
2018-12-21T02:09:27.972Z,1.60
2018-12-21T02:11:55.545Z,1.73
2018-12-21T02:14:23.029Z,1.77
2018-12-21T02:16:50.480Z,1.50
2018-12-21T02:19:18.069Z,1.57
2018-12-21T02:21:45.829Z,1.40
2018-12-21T02:24:13.291Z,1.73
2018-12-21T02:26:41.060Z,1.43
2018-12-21T02:29:08.849Z,1.50
2018-12-21T02:31:36.599Z,1.77
2018-12-21T02:34:04.372Z,1.60
2018-12-21T02:36:32.226Z,1.57
2018-12-21T02:38:59.884Z,1.30
2018-12-21T02:41:27.532Z,1.90
2018-12-21T02:43:55.014Z,1.80
2018-12-21T02:46:22.479Z,1.53
2018-12-21T02:48:49.933Z,1.80
2018-12-21T02:51:17.392Z,1.70
2018-12-21T02:53:44.935Z,2.00
2018-12-21T02:56:12.710Z,1.70
2018-12-21T02:58:40.205Z,1.57
2018-12-21T03:01:07.930Z,1.70
2018-12-21T03:03:35.502Z,1.70
2018-12-21T03:06:03.153Z,1.20
2018-12-21T03:08:30.636Z,1.37
2018-12-21T03:10:58.382Z,1.50
2018-12-21T03:13:25.833Z,1.73
2018-12-21T03:15:53.598Z,1.50
2018-12-21T03:18:21.063Z,1.70
2018-12-21T03:20:48.516Z,1.70
2018-12-21T03:23:15.962Z,1.83
2018-12-21T03:25:43.455Z,1.30
2018-12-21T03:28:10.894Z,1.57
2018-12-21T03:30:38.659Z,1.40
2018-12-21T03:33:06.310Z,1.50
2018-12-21T03:35:34.041Z,1.60
2018-12-21T03:38:01.658Z,1.43
2018-12-21T03:40:29.305Z,1.47
2018-12-21T03:42:56.902Z,1.60
2018-12-21T03:45:24.669Z,1.60
2018-12-21T03:47:52.279Z,1.40
2018-12-21T03:50:19.860Z,1.47
2018-12-21T03:52:47.520Z,2.00
2018-12-21T03:55:15.082Z,1.40
2018-12-21T03:57:42.846Z,1.57
2018-12-21T04:00:10.428Z,1.43
2018-12-21T04:02:37.967Z,1.20
2018-12-21T04:05:05.544Z,1.57
2018-12-21T04:07:33.169Z,1.70
2018-12-21T04:10:00.753Z,1.30
2018-12-21T04:12:28.236Z,1.50
2018-12-21T04:14:55.993Z,1.60
2018-12-21T04:17:23.433Z,1.40
2018-12-21T04:19:51.090Z,1.30
2018-12-21T04:22:18.667Z,1.53
2018-12-21T04:24:46.430Z,1.17
2018-12-21T04:27:14.164Z,1.10
2018-12-21T04:29:41.644Z,1.30
2018-12-21T04:32:09.322Z,1.13
2018-12-21T04:34:36.885Z,1.23
2018-12-21T04:37:04.373Z,1.23
2018-12-21T04:39:31.965Z,1.27
2018-12-21T04:41:59.574Z,1.47
2018-12-21T04:44:27.121Z,1.07
2018-12-21T04:46:54.675Z,0.90
2018-12-21T04:49:22.217Z,1.20
2018-12-21T04:51:50.032Z,1.47
2018-12-21T04:54:17.460Z,1.50
2018-12-21T04:56:45.223Z,1.10
2018-12-21T04:59:12.726Z,1.13
2018-12-21T05:01:40.464Z,1.10
2018-12-21T05:04:08.336Z,1.13
2018-12-21T05:06:36.215Z,1.00
2018-12-21T05:09:05.450Z,1.00
2018-12-21T05:11:33.099Z,1.37
2018-12-21T05:14:00.521Z,1.10
2018-12-21T05:16:28.022Z,1.10
2018-12-21T05:18:55.511Z,1.27
2018-12-21T05:21:23.177Z,1.13
2018-12-21T05:23:50.967Z,1.40
2018-12-21T05:26:18.730Z,1.10
2018-12-21T05:28:46.344Z,1.00
2018-12-21T05:31:13.861Z,1.57
2018-12-21T05:33:41.466Z,1.20
2018-12-21T05:36:09.032Z,1.13
2018-12-21T05:38:36.525Z,1.00
2018-12-21T05:41:04.082Z,1.43
2018-12-21T05:43:31.858Z,1.60
2018-12-21T05:45:59.590Z,1.40
2018-12-21T05:48:27.236Z,0.77
2018-12-21T05:50:54.738Z,1.10
2018-12-21T05:53:22.298Z,1.20
2018-12-21T05:55:50.211Z,1.30
2018-12-21T05:58:17.809Z,1.27
2018-12-21T06:00:45.578Z,1.13
2018-12-21T06:03:13.361Z,1.10
2018-12-21T06:05:41.142Z,1.20
2018-12-21T06:08:08.950Z,1.13
2018-12-21T06:10:36.495Z,1.10
2018-12-21T06:13:04.129Z,1.10
2018-12-21T06:15:31.868Z,1.13
2018-12-21T06:17:59.593Z,0.90
2018-12-21T06:20:27.557Z,1.20
2018-12-21T06:22:55.020Z,1.10
2018-12-21T06:25:22.566Z,1.30
2018-12-21T06:27:50.378Z,1.80
2018-12-21T06:30:17.845Z,1.30
2018-12-21T06:32:45.329Z,1.20
2018-12-21T06:35:12.801Z,1.20
2018-12-21T06:37:40.397Z,1.03
2018-12-21T06:40:07.998Z,1.23
2018-12-21T06:42:35.609Z,1.10
2018-12-21T06:45:03.136Z,1.40
2018-12-21T06:47:30.581Z,1.30
2018-12-21T06:49:58.118Z,1.30
2018-12-21T06:52:25.576Z,1.83
2018-12-21T06:54:53.050Z,1.90
2018-12-21T06:57:20.638Z,1.87
2018-12-21T06:59:48.297Z,1.50
2018-12-21T07:02:16.025Z,2.47
2018-12-21T07:04:43.582Z,1.77
2018-12-21T07:07:11.249Z,1.30
2018-12-21T07:09:38.720Z,1.03
2018-12-21T07:12:06.349Z,1.13
2018-12-21T07:14:33.855Z,1.30
2018-12-21T07:17:01.415Z,1.63
2018-12-21T07:19:29.046Z,2.73
2018-12-21T07:21:56.641Z,1.40
2018-12-21T07:24:24.441Z,1.17
2018-12-21T07:26:52.149Z,1.20
2018-12-21T07:29:20.789Z,1.90
2018-12-21T07:31:48.595Z,1.63
2018-12-21T07:34:16.052Z,2.13
2018-12-21T07:36:43.512Z,1.70
2018-12-21T07:39:10.993Z,2.10
2018-12-21T07:41:38.732Z,1.50
2018-12-21T07:44:06.503Z,1.70
2018-12-21T07:46:34.265Z,1.70
2018-12-21T07:49:01.716Z,1.80
2018-12-21T07:51:29.188Z,1.70
2018-12-21T07:53:56.989Z,3.20
2018-12-21T07:56:24.621Z,2.87
2018-12-21T07:58:57.184Z,2.67
2018-12-21T08:01:21.773Z,3.00
2018-12-21T08:03:49.234Z,2.87
2018-12-21T08:06:16.698Z,2.97
2018-12-21T08:08:44.140Z,2.83
2018-12-21T08:11:11.623Z,2.43
2018-12-21T08:13:39.087Z,2.40
2018-12-21T08:16:06.612Z,2.80
2018-12-21T08:18:34.158Z,2.50
2018-12-21T08:21:01.786Z,2.67
2018-12-21T08:23:29.254Z,2.70
2018-12-21T08:25:56.877Z,2.83
2018-12-21T08:28:24.357Z,2.63
2018-12-21T08:30:51.897Z,1.80
2018-12-21T08:33:19.557Z,2.00
2018-12-21T08:35:47.023Z,2.10
2018-12-21T08:38:14.518Z,2.00
2018-12-21T08:40:41.969Z,2.33
2018-12-21T08:43:09.571Z,1.97
2018-12-21T08:45:37.257Z,2.13
2018-12-21T08:48:04.945Z,2.30
2018-12-21T08:50:32.542Z,1.90
2018-12-21T08:53:00.105Z,2.00
2018-12-21T08:55:27.632Z,1.93
2018-12-21T08:57:55.080Z,2.00
2018-12-21T09:00:22.545Z,1.77
2018-12-21T09:02:50.005Z,1.83
2018-12-21T09:05:17.464Z,2.13
2018-12-21T09:07:44.917Z,1.83
2018-12-21T09:10:12.358Z,1.47
2018-12-21T09:12:39.836Z,2.00
2018-12-21T09:15:09.926Z,1.83
2018-12-21T09:17:37.602Z,1.73
2018-12-21T09:20:08.902Z,1.93
2018-12-21T09:22:36.437Z,1.70
2018-12-21T09:25:04.897Z,1.80
2018-12-21T09:27:32.649Z,1.70
2018-12-21T09:30:00.351Z,2.00
2018-12-21T09:32:27.887Z,1.80
2018-12-21T09:34:55.510Z,1.60
2018-12-21T09:37:23.105Z,1.40
2018-12-21T09:39:50.742Z,1.70
2018-12-21T09:42:18.347Z,1.90
2018-12-21T09:44:52.497Z,1.90
2018-12-21T09:47:15.685Z,1.90
2018-12-21T09:49:43.153Z,1.27
2018-12-21T09:52:10.789Z,1.47
2018-12-21T09:54:38.337Z,1.47
2018-12-21T09:57:05.805Z,1.70
2018-12-21T09:59:33.341Z,1.50
2018-12-21T10:02:01.045Z,1.60
2018-12-21T10:04:28.827Z,1.57
2018-12-21T10:06:56.292Z,1.50
2018-12-21T10:09:24.033Z,1.70
2018-12-21T10:11:51.661Z,1.70
2018-12-21T10:14:19.209Z,1.97
2018-12-21T10:16:47.058Z,1.50
2018-12-21T10:19:14.695Z,1.87
2018-12-21T10:21:42.186Z,1.60
2018-12-21T10:24:18.331Z,2.03
2018-12-21T10:26:39.342Z,2.03
2018-12-21T10:29:07.085Z,2.70
2018-12-21T10:31:34.542Z,2.40
2018-12-21T10:34:02.009Z,5.60
2018-12-21T10:36:29.775Z,2.50
2018-12-21T10:38:57.224Z,3.37
2018-12-21T10:41:24.988Z,2.13
2018-12-21T10:43:52.444Z,3.23
2018-12-21T10:46:20.081Z,2.53
2018-12-21T10:48:47.940Z,2.10
2018-12-21T10:51:15.364Z,2.30
2018-12-21T10:53:46.507Z,2.80
2018-12-21T10:56:12.420Z,2.00
2018-12-21T10:58:40.231Z,2.83
2018-12-21T11:01:07.753Z,2.07
2018-12-21T11:03:35.413Z,2.40
2018-12-21T11:06:02.876Z,2.30
2018-12-21T11:08:30.328Z,2.30
2018-12-21T11:10:58.175Z,2.33
2018-12-21T11:13:25.661Z,2.17
2018-12-21T11:15:53.393Z,2.23
2018-12-21T11:18:20.862Z,2.40
2018-12-21T11:20:48.509Z,1.67
2018-12-21T11:23:16.004Z,2.27
2018-12-21T11:25:43.553Z,1.93
2018-12-21T11:28:11.259Z,1.80
2018-12-21T11:30:38.761Z,2.00
2018-12-21T11:33:06.386Z,1.60
2018-12-21T11:35:33.993Z,1.40
2018-12-21T11:38:01.613Z,2.10
2018-12-21T11:40:29.113Z,1.67
2018-12-21T11:42:56.570Z,1.60
2018-12-21T11:45:24.125Z,1.80
2018-12-21T11:47:51.606Z,2.10
2018-12-21T11:50:19.140Z,1.57
2018-12-21T11:52:46.775Z,2.00
2018-12-21T11:55:14.219Z,1.57
2018-12-21T11:57:41.693Z,2.30
2018-12-21T12:00:09.487Z,1.80
2018-12-21T12:02:37.234Z,1.57
2018-12-21T12:05:05.714Z,1.40
2018-12-21T12:07:33.397Z,1.47
2018-12-21T12:10:01.030Z,1.47
2018-12-21T12:12:28.548Z,1.10
2018-12-21T12:14:55.969Z,1.40
2018-12-21T12:17:23.562Z,1.30
2018-12-21T12:19:51.109Z,1.60
2018-12-21T12:22:18.785Z,1.40
2018-12-21T12:24:52.765Z,1.63
2018-12-21T12:27:16.058Z,1.57
2018-12-21T12:29:43.586Z,1.40
2018-12-21T12:32:11.216Z,1.23
2018-12-21T12:34:38.717Z,1.80
2018-12-21T12:37:06.212Z,1.50
2018-12-21T12:39:33.747Z,1.40
2018-12-21T12:42:03.595Z,1.27
2018-12-21T12:44:31.109Z,1.53
2018-12-21T12:46:58.560Z,1.43
2018-12-21T12:49:27.941Z,1.50
2018-12-21T12:51:55.451Z,1.50
2018-12-21T12:54:23.002Z,1.50
2018-12-21T12:56:50.441Z,1.30
2018-12-21T12:59:17.905Z,1.40
2018-12-21T13:01:45.454Z,1.40
2018-12-21T13:04:13.258Z,1.40
2018-12-21T13:06:41.001Z,1.30
2018-12-21T13:09:08.764Z,1.47
2018-12-21T13:11:36.537Z,1.40
2018-12-21T13:14:04.313Z,1.40
2018-12-21T13:16:32.057Z,1.40
2018-12-21T13:18:59.726Z,1.30
2018-12-21T13:21:27.284Z,1.73
2018-12-21T13:26:28.059Z,1.60
2018-12-21T13:28:55.509Z,1.70
2018-12-21T13:31:22.985Z,1.63
2018-12-21T13:33:50.717Z,2.20
2018-12-21T13:36:18.189Z,1.70
2018-12-21T13:38:45.811Z,1.60
2018-12-21T13:41:13.563Z,1.50
2018-12-21T13:43:41.323Z,1.33
2018-12-21T13:46:08.952Z,1.93
2018-12-21T13:48:36.702Z,1.57
2018-12-21T13:51:04.386Z,1.20
2018-12-21T13:53:31.939Z,1.10
2018-12-21T13:55:59.679Z,1.47
2018-12-21T13:58:27.317Z,1.63
2018-12-21T14:00:54.827Z,1.50
2018-12-21T14:03:22.335Z,1.20
2018-12-21T14:05:49.825Z,1.40
2018-12-21T14:08:17.297Z,3.13
2018-12-21T14:10:45.044Z,1.80
2018-12-21T14:13:12.561Z,1.70
2018-12-21T14:15:40.267Z,1.93
2018-12-21T14:18:07.725Z,1.60
2018-12-21T14:20:35.489Z,1.50
2018-12-21T14:23:02.965Z,1.60
2018-12-21T14:25:30.704Z,1.40
2018-12-21T14:27:58.211Z,1.40
2018-12-21T14:30:25.942Z,1.40
2018-12-21T14:32:53.727Z,1.20
2018-12-21T14:35:21.177Z,1.53
2018-12-21T14:37:48.931Z,1.13
2018-12-21T14:40:16.557Z,1.47
2018-12-21T14:42:44.179Z,1.73
2018-12-21T14:45:11.667Z,1.37
2018-12-21T14:47:39.160Z,1.60
2018-12-21T14:50:07.865Z,1.20
2018-12-21T14:52:35.424Z,1.50
2018-12-21T14:55:04.239Z,1.50
2018-12-21T14:57:31.993Z,1.60
2018-12-21T14:59:59.741Z,1.10
2018-12-21T15:02:27.373Z,1.20
2018-12-21T15:04:54.880Z,1.70
2018-12-21T15:07:22.335Z,1.50
2018-12-21T15:09:49.840Z,1.40
2018-12-21T15:12:17.330Z,11.03
2018-12-21T15:14:44.797Z,28.00
2018-12-21T15:17:13.079Z,15.43
2018-12-21T15:19:40.565Z,7.33
2018-12-21T15:22:08.005Z,6.03
2018-12-21T15:24:35.610Z,5.63
2018-12-21T15:27:03.345Z,6.60
2018-12-21T15:29:31.084Z,6.20
2018-12-21T15:31:58.538Z,6.58
2018-12-21T15:34:25.988Z,5.67
2018-12-21T15:36:53.506Z,4.73
2018-12-21T15:39:21.245Z,5.60
2018-12-21T15:41:49.008Z,4.13
2018-12-21T15:44:16.756Z,4.80
2018-12-21T15:46:44.441Z,3.63
2018-12-21T15:49:12.601Z,4.10
2018-12-21T15:51:40.380Z,4.60
2018-12-21T15:54:08.130Z,3.90
2018-12-21T15:56:35.885Z,4.33
2018-12-21T15:59:03.337Z,3.97
2018-12-21T16:01:36.765Z,3.90
2018-12-21T16:04:00.665Z,4.60
2018-12-21T16:06:28.097Z,4.10
2018-12-21T16:08:55.969Z,4.13
2018-12-21T16:11:23.518Z,3.73
2018-12-21T16:13:51.122Z,4.40
2018-12-21T16:16:18.592Z,4.00
2018-12-21T16:18:46.118Z,3.93
2018-12-21T16:21:13.579Z,3.50
2018-12-21T16:23:43.017Z,3.27
2018-12-21T16:26:11.562Z,3.67
2018-12-21T16:28:39.236Z,3.00
2018-12-21T16:31:07.012Z,3.23
2018-12-21T16:33:37.067Z,3.43
2018-12-21T16:36:04.637Z,3.87
2018-12-21T16:38:33.087Z,3.30
2018-12-21T16:41:00.554Z,2.97
2018-12-21T16:43:28.110Z,2.90
2018-12-21T16:45:55.654Z,3.00
2018-12-21T16:48:23.133Z,3.33
2018-12-21T16:50:50.605Z,3.60
2018-12-21T16:53:18.397Z,3.47
2018-12-21T16:55:45.893Z,3.10
2018-12-21T16:58:13.399Z,3.37
2018-12-21T17:00:41.062Z,3.00
2018-12-21T17:03:15.634Z,3.40
2018-12-21T17:05:38.137Z,2.67
2018-12-21T17:08:05.687Z,3.23
2018-12-21T17:10:33.463Z,3.00
2018-12-21T17:13:00.921Z,3.03
2018-12-21T17:15:28.701Z,3.15
2018-12-21T17:17:56.458Z,3.20
2018-12-21T17:20:23.904Z,3.33
2018-12-21T17:22:51.389Z,3.23
2018-12-21T17:25:19.158Z,3.30
2018-12-21T17:27:46.890Z,3.10
2018-12-21T17:30:14.344Z,2.77
2018-12-21T17:32:41.864Z,3.00
2018-12-21T17:35:09.568Z,3.27
2018-12-21T17:37:37.017Z,2.60
2018-12-21T17:40:06.723Z,3.20
2018-12-21T17:42:34.427Z,2.53
2018-12-21T17:45:02.996Z,2.77
2018-12-21T17:47:30.583Z,2.90
2018-12-21T17:49:58.320Z,2.50
2018-12-21T17:52:26.385Z,2.50
2018-12-21T17:54:53.828Z,2.13
2018-12-21T17:57:21.284Z,2.73
2018-12-21T17:59:48.881Z,2.63
2018-12-21T18:02:16.429Z,2.60
2018-12-21T18:04:44.010Z,2.33
2018-12-21T18:07:11.679Z,2.93
2018-12-21T18:09:39.117Z,2.77
2018-12-21T18:12:06.606Z,2.60
2018-12-21T18:14:34.116Z,2.77
2018-12-21T18:17:01.895Z,2.43
2018-12-21T18:19:29.521Z,2.30
2018-12-21T18:21:57.101Z,2.33
2018-12-21T18:24:24.602Z,2.37
2018-12-21T18:26:52.049Z,2.40
2018-12-21T18:29:19.789Z,2.20
2018-12-21T18:31:50.369Z,2.53
2018-12-21T18:34:21.372Z,2.73
2018-12-21T18:36:48.963Z,2.47
2018-12-21T18:39:16.557Z,2.67
2018-12-21T18:41:44.105Z,2.33
2018-12-21T18:44:11.548Z,3.10
2018-12-21T18:46:39.047Z,2.90
2018-12-21T18:49:06.524Z,2.60
2018-12-21T18:51:33.995Z,2.03
2018-12-21T18:54:01.809Z,2.83
2018-12-21T18:56:30.469Z,2.13
2018-12-21T18:58:58.207Z,2.50
2018-12-21T19:01:25.957Z,3.40
2018-12-21T19:03:53.534Z,2.10
2018-12-21T19:06:21.824Z,1.70
2018-12-21T19:08:49.294Z,2.50
2018-12-21T19:11:16.953Z,2.20
2018-12-21T19:13:44.481Z,2.20
2018-12-21T19:16:12.219Z,2.13
2018-12-21T19:18:39.654Z,2.30
2018-12-21T19:21:07.110Z,2.10
2018-12-21T19:23:34.629Z,2.10
2018-12-21T19:26:02.433Z,2.27
2018-12-21T19:28:30.056Z,2.27
2018-12-21T19:30:57.631Z,2.40
2018-12-21T19:33:25.383Z,2.17
2018-12-21T19:35:53.161Z,2.00
2018-12-21T19:38:20.615Z,2.37
2018-12-21T19:40:48.074Z,1.90
2018-12-21T19:43:15.729Z,2.53
2018-12-21T19:45:43.293Z,2.20
2018-12-21T19:48:11.037Z,2.10
2018-12-21T19:50:38.569Z,2.40
2018-12-21T19:53:06.092Z,1.87
2018-12-21T19:55:38.341Z,2.00
2018-12-21T19:58:05.808Z,2.43
2018-12-21T20:00:33.601Z,2.20
2018-12-21T20:03:01.350Z,2.10
2018-12-21T20:05:28.802Z,2.07
2018-12-21T20:07:56.454Z,2.00
2018-12-21T20:10:23.962Z,1.87
2018-12-21T20:12:51.431Z,1.90
2018-12-21T20:15:18.960Z,1.97
2018-12-21T20:17:46.432Z,1.67
2018-12-21T20:20:14.178Z,1.70
2018-12-21T20:22:41.809Z,1.73
2018-12-21T20:25:09.314Z,2.10
2018-12-21T20:27:36.815Z,1.60
2018-12-21T20:30:07.702Z,1.27
2018-12-21T20:32:35.330Z,1.93
2018-12-21T20:35:03.226Z,1.63
2018-12-21T20:37:30.761Z,2.07
2018-12-21T20:39:58.229Z,2.23
2018-12-21T20:42:25.811Z,1.70
2018-12-21T20:44:53.269Z,2.27
2018-12-21T20:47:20.798Z,1.80
2018-12-21T20:49:48.482Z,1.83
2018-12-21T20:52:16.001Z,1.90
2018-12-21T20:54:43.466Z,1.90
2018-12-21T20:57:11.372Z,2.10
2018-12-21T20:59:39.616Z,2.30
2018-12-21T21:02:07.098Z,1.47
2018-12-21T21:04:34.857Z,1.60
2018-12-21T21:07:02.616Z,1.67
2018-12-21T21:09:30.053Z,1.73
2018-12-21T21:11:57.716Z,1.87
2018-12-21T21:14:25.195Z,1.83
2018-12-21T21:16:52.674Z,1.60
2018-12-21T21:19:20.214Z,1.17
2018-12-21T21:21:47.877Z,1.50
2018-12-21T21:24:15.308Z,1.60
2018-12-21T21:26:42.913Z,2.10
2018-12-21T21:29:10.367Z,1.83
2018-12-21T21:31:38.612Z,1.67
2018-12-21T21:34:06.076Z,1.50
2018-12-21T21:36:33.657Z,1.70
2018-12-21T21:39:01.104Z,1.57
2018-12-21T21:41:28.868Z,1.80
2018-12-21T21:43:57.128Z,1.60
2018-12-21T21:46:24.683Z,1.47
2018-12-21T21:48:52.182Z,2.00
2018-12-21T21:51:19.714Z,1.83
2018-12-21T21:53:47.394Z,1.30
2018-12-21T21:56:14.881Z,1.23
2018-12-21T21:58:42.536Z,1.20
2018-12-21T22:01:09.995Z,1.10
2018-12-21T22:03:37.448Z,0.93
2018-12-21T22:06:05.139Z,1.10
2018-12-21T22:08:32.768Z,1.23
2018-12-21T22:11:02.052Z,1.17
2018-12-21T22:13:30.014Z,0.83
2018-12-21T22:15:57.489Z,1.27
2018-12-21T22:18:24.953Z,1.20
2018-12-21T22:20:53.213Z,1.20
2018-12-21T22:23:21.713Z,1.13
2018-12-21T22:25:53.280Z,1.20
2018-12-21T22:28:18.796Z,1.10
2018-12-21T22:30:46.307Z,1.30
2018-12-21T22:33:13.805Z,1.20
2018-12-21T22:35:41.537Z,0.90
2018-12-21T22:38:09.201Z,0.80
2018-12-21T22:40:36.693Z,0.90
2018-12-21T22:43:04.221Z,1.10
2018-12-21T22:45:31.704Z,0.83
2018-12-21T22:47:59.153Z,1.00
2018-12-21T22:50:26.995Z,0.90
2018-12-21T22:52:54.806Z,0.80
2018-12-21T22:55:22.349Z,1.13
2018-12-21T22:57:56.416Z,0.90
2018-12-21T23:00:21.383Z,0.90
2018-12-21T23:02:48.985Z,0.90
2018-12-21T23:05:16.566Z,0.90
2018-12-21T23:07:44.246Z,0.80
2018-12-21T23:10:11.815Z,0.83
2018-12-21T23:12:39.449Z,0.90
2018-12-21T23:15:07.182Z,0.70
2018-12-21T23:17:34.619Z,0.60
2018-12-21T23:20:02.268Z,0.80
2018-12-21T23:22:29.733Z,0.70
2018-12-21T23:24:57.497Z,0.80
2018-12-21T23:27:24.990Z,0.53
2018-12-21T23:29:52.592Z,0.87
2018-12-21T23:32:20.148Z,0.60
2018-12-21T23:34:47.614Z,0.90
2018-12-21T23:37:15.373Z,1.10
2018-12-21T23:39:43.031Z,1.00
2018-12-21T23:42:10.616Z,0.67
2018-12-21T23:44:38.093Z,0.73
2018-12-21T23:47:05.680Z,0.90
2018-12-21T23:49:33.301Z,0.67
2018-12-21T23:52:01.671Z,1.37
2018-12-21T23:54:29.445Z,0.70
2018-12-21T23:56:57.043Z,0.90
2018-12-21T23:59:24.669Z,0.60
